sensor_id;sensor_type;location;lat;lon;timestamp;temperature;humidity
32217;DHT22;67098;51.140;4.088;2024-01-15T00:00:23;5.50;99.90
32217;DHT22;67098;51.140;4.088;2024-01-15T00:02:49;5.50;99.90
32217;DHT22;67098;51.140;4.088;2024-01-15T00:05:15;5.40;99.90
32217;DHT22;67098;51.140;4.088;2024-01-15T00:07:40;5.50;99.90
32217;DHT22;67098;51.140;4.088;2024-01-15T00:10:06;5.50;99.90
32217;DHT22;67098;51.140;4.088;2024-01-15T00:12:32;5.50;99.90
32217;DHT22;67098;51.140;4.088;2024-01-15T00:14:58;5.50;99.90
32217;DHT22;67098;51.140;4.088;2024-01-15T00:17:25;5.40;99.90
32217;DHT22;67098;51.140;4.088;2024-01-15T00:19:51;5.40;99.90
32217;DHT22;67098;51.140;4.088;2024-01-15T00:22:17;5.40;99.90
32217;DHT22;67098;51.140;4.088;2024-01-15T00:24:43;5.40;99.90
32217;DHT22;67098;51.140;4.088;2024-01-15T00:27:09;5.40;99.90
32217;DHT22;67098;51.140;4.088;2024-01-15T00:29:35;5.40;99.90
32217;DHT22;67098;51.140;4.088;2024-01-15T00:32:00;5.30;99.90
32217;DHT22;67098;51.140;4.088;2024-01-15T00:34:26;5.40;99.90
32217;DHT22;67098;51.140;4.088;2024-01-15T00:36:52;5.40;99.90
32217;DHT22;67098;51.140;4.088;2024-01-15T00:39:18;5.50;99.90
32217;DHT22;67098;51.140;4.088;2024-01-15T00:41:44;5.60;99.90
32217;DHT22;67098;51.140;4.088;2024-01-15T00:44:10;5.70;99.90
32217;DHT22;67098;51.140;4.088;2024-01-15T00:46:43;5.70;99.90
32217;DHT22;67098;51.140;4.088;2024-01-15T00:49:10;5.70;99.90
32217;DHT22;67098;51.140;4.088;2024-01-15T00:51:35;5.70;99.90
32217;DHT22;67098;51.140;4.088;2024-01-15T00:54:01;5.70;99.90
32217;DHT22;67098;51.140;4.088;2024-01-15T00:56:27;5.70;99.90
32217;DHT22;67098;51.140;4.088;2024-01-15T00:58:53;5.80;99.90
32217;DHT22;67098;51.140;4.088;2024-01-15T01:01:19;5.80;99.90
32217;DHT22;67098;51.140;4.088;2024-01-15T01:03:45;5.70;99.90
32217;DHT22;67098;51.140;4.088;2024-01-15T01:06:10;5.60;99.90
32217;DHT22;67098;51.140;4.088;2024-01-15T01:08:36;5.50;99.90
32217;DHT22;67098;51.140;4.088;2024-01-15T01:11:02;5.50;99.90
32217;DHT22;67098;51.140;4.088;2024-01-15T01:13:27;5.40;99.90
32217;DHT22;67098;51.140;4.088;2024-01-15T01:15:53;5.50;99.90
32217;DHT22;67098;51.140;4.088;2024-01-15T01:18:19;5.50;99.90
32217;DHT22;67098;51.140;4.088;2024-01-15T01:20:45;5.50;99.90
32217;DHT22;67098;51.140;4.088;2024-01-15T01:23:10;5.40;99.90
32217;DHT22;67098;51.140;4.088;2024-01-15T01:25:36;5.50;99.90
32217;DHT22;67098;51.140;4.088;2024-01-15T01:28:02;5.40;99.90
32217;DHT22;67098;51.140;4.088;2024-01-15T01:30:28;5.40;99.90
32217;DHT22;67098;51.140;4.088;2024-01-15T01:32:54;5.40;99.90
32217;DHT22;67098;51.140;4.088;2024-01-15T01:35:19;5.40;99.90
32217;DHT22;67098;51.140;4.088;2024-01-15T01:37:45;5.20;99.90
32217;DHT22;67098;51.140;4.088;2024-01-15T01:40:11;5.20;99.90
32217;DHT22;67098;51.140;4.088;2024-01-15T01:42:37;5.40;99.90
32217;DHT22;67098;51.140;4.088;2024-01-15T01:45:03;5.40;99.90
32217;DHT22;67098;51.140;4.088;2024-01-15T01:47:29;5.50;99.90
32217;DHT22;67098;51.140;4.088;2024-01-15T01:49:55;5.60;99.90
32217;DHT22;67098;51.140;4.088;2024-01-15T01:52:21;5.60;99.90
32217;DHT22;67098;51.140;4.088;2024-01-15T01:54:47;5.60;99.90
32217;DHT22;67098;51.140;4.088;2024-01-15T01:57:14;5.60;99.90
32217;DHT22;67098;51.140;4.088;2024-01-15T01:59:40;5.70;99.90
32217;DHT22;67098;51.140;4.088;2024-01-15T02:02:06;5.70;99.90
32217;DHT22;67098;51.140;4.088;2024-01-15T02:04:32;5.70;99.90
32217;DHT22;67098;51.140;4.088;2024-01-15T02:07:01;5.70;99.90
32217;DHT22;67098;51.140;4.088;2024-01-15T02:09:28;5.70;99.90
32217;DHT22;67098;51.140;4.088;2024-01-15T02:11:54;5.80;99.90
32217;DHT22;67098;51.140;4.088;2024-01-15T02:14:20;5.80;99.90
32217;DHT22;67098;51.140;4.088;2024-01-15T02:16:45;5.80;99.90
32217;DHT22;67098;51.140;4.088;2024-01-15T02:19:18;5.80;99.90
32217;DHT22;67098;51.140;4.088;2024-01-15T02:21:44;5.80;99.90
32217;DHT22;67098;51.140;4.088;2024-01-15T02:24:10;5.80;99.90
32217;DHT22;67098;51.140;4.088;2024-01-15T02:26:37;5.80;99.90
32217;DHT22;67098;51.140;4.088;2024-01-15T02:29:05;5.80;99.90
32217;DHT22;67098;51.140;4.088;2024-01-15T02:31:33;5.90;99.90
32217;DHT22;67098;51.140;4.088;2024-01-15T02:33:59;5.80;99.90
32217;DHT22;67098;51.140;4.088;2024-01-15T02:36:24;5.70;99.90
32217;DHT22;67098;51.140;4.088;2024-01-15T02:38:50;5.70;99.90
32217;DHT22;67098;51.140;4.088;2024-01-15T02:41:16;5.70;99.90
32217;DHT22;67098;51.140;4.088;2024-01-15T02:43:41;5.70;99.90
32217;DHT22;67098;51.140;4.088;2024-01-15T02:46:07;5.70;99.90
32217;DHT22;67098;51.140;4.088;2024-01-15T02:48:33;5.60;99.90
32217;DHT22;67098;51.140;4.088;2024-01-15T02:51:01;5.70;99.90
32217;DHT22;67098;51.140;4.088;2024-01-15T02:53:27;5.70;99.90
32217;DHT22;67098;51.140;4.088;2024-01-15T02:55:53;5.60;99.90
32217;DHT22;67098;51.140;4.088;2024-01-15T02:58:19;5.60;99.90
32217;DHT22;67098;51.140;4.088;2024-01-15T03:00:45;5.70;99.90
32217;DHT22;67098;51.140;4.088;2024-01-15T03:03:12;5.60;99.90
32217;DHT22;67098;51.140;4.088;2024-01-15T03:05:38;5.60;99.90
32217;DHT22;67098;51.140;4.088;2024-01-15T03:08:04;5.60;99.90
32217;DHT22;67098;51.140;4.088;2024-01-15T03:10:30;5.60;99.90
32217;DHT22;67098;51.140;4.088;2024-01-15T03:12:55;5.70;99.90
32217;DHT22;67098;51.140;4.088;2024-01-15T03:15:21;5.70;99.90
32217;DHT22;67098;51.140;4.088;2024-01-15T03:17:47;5.70;99.90
32217;DHT22;67098;51.140;4.088;2024-01-15T03:20:12;5.80;99.90
32217;DHT22;67098;51.140;4.088;2024-01-15T03:22:38;5.70;99.90
32217;DHT22;67098;51.140;4.088;2024-01-15T03:25:06;5.80;99.90
32217;DHT22;67098;51.140;4.088;2024-01-15T03:27:32;5.80;99.90
32217;DHT22;67098;51.140;4.088;2024-01-15T03:29:57;5.70;99.90
32217;DHT22;67098;51.140;4.088;2024-01-15T03:32:23;5.70;99.90
32217;DHT22;67098;51.140;4.088;2024-01-15T03:34:49;5.70;99.90
32217;DHT22;67098;51.140;4.088;2024-01-15T03:37:15;5.60;99.90
32217;DHT22;67098;51.140;4.088;2024-01-15T03:39:40;5.60;99.90
32217;DHT22;67098;51.140;4.088;2024-01-15T03:42:06;5.60;99.90
32217;DHT22;67098;51.140;4.088;2024-01-15T03:44:32;5.60;99.90
32217;DHT22;67098;51.140;4.088;2024-01-15T03:46:58;5.40;99.90
32217;DHT22;67098;51.140;4.088;2024-01-15T03:49:24;5.50;99.90
32217;DHT22;67098;51.140;4.088;2024-01-15T03:51:50;5.50;99.90
32217;DHT22;67098;51.140;4.088;2024-01-15T03:54:15;5.50;99.90
32217;DHT22;67098;51.140;4.088;2024-01-15T03:56:41;5.30;99.90
32217;DHT22;67098;51.140;4.088;2024-01-15T03:59:07;5.20;99.90
32217;DHT22;67098;51.140;4.088;2024-01-15T04:01:33;5.20;99.90
32217;DHT22;67098;51.140;4.088;2024-01-15T04:03:58;5.20;99.90
32217;DHT22;67098;51.140;4.088;2024-01-15T04:06:24;5.20;99.90
32217;DHT22;67098;51.140;4.088;2024-01-15T04:08:50;5.20;99.90
32217;DHT22;67098;51.140;4.088;2024-01-15T04:11:16;5.10;99.90
32217;DHT22;67098;51.140;4.088;2024-01-15T04:13:41;5.10;99.90
32217;DHT22;67098;51.140;4.088;2024-01-15T04:16:07;5.00;99.90
32217;DHT22;67098;51.140;4.088;2024-01-15T04:18:33;5.00;99.90
32217;DHT22;67098;51.140;4.088;2024-01-15T04:20:59;4.90;99.90
32217;DHT22;67098;51.140;4.088;2024-01-15T04:23:24;4.80;99.90
32217;DHT22;67098;51.140;4.088;2024-01-15T04:25:50;4.80;99.90
32217;DHT22;67098;51.140;4.088;2024-01-15T04:28:16;4.80;99.90
32217;DHT22;67098;51.140;4.088;2024-01-15T04:30:42;4.80;99.90
32217;DHT22;67098;51.140;4.088;2024-01-15T04:33:08;4.80;99.90
32217;DHT22;67098;51.140;4.088;2024-01-15T04:35:34;4.80;99.90
32217;DHT22;67098;51.140;4.088;2024-01-15T04:38:00;4.70;99.90
32217;DHT22;67098;51.140;4.088;2024-01-15T04:40:26;4.70;99.90
32217;DHT22;67098;51.140;4.088;2024-01-15T04:42:53;4.70;99.90
32217;DHT22;67098;51.140;4.088;2024-01-15T04:45:20;4.60;99.90
32217;DHT22;67098;51.140;4.088;2024-01-15T04:47:48;4.60;99.90
32217;DHT22;67098;51.140;4.088;2024-01-15T04:50:15;4.60;99.90
32217;DHT22;67098;51.140;4.088;2024-01-15T04:52:40;4.50;99.90
32217;DHT22;67098;51.140;4.088;2024-01-15T04:55:06;4.50;99.90
32217;DHT22;67098;51.140;4.088;2024-01-15T04:57:32;4.50;99.90
32217;DHT22;67098;51.140;4.088;2024-01-15T04:59:58;4.50;99.90
32217;DHT22;67098;51.140;4.088;2024-01-15T05:02:23;4.70;99.90
32217;DHT22;67098;51.140;4.088;2024-01-15T05:04:49;4.60;99.90
32217;DHT22;67098;51.140;4.088;2024-01-15T05:07:15;4.50;99.90
32217;DHT22;67098;51.140;4.088;2024-01-15T05:09:41;4.60;99.90
32217;DHT22;67098;51.140;4.088;2024-01-15T05:12:07;4.60;99.90
32217;DHT22;67098;51.140;4.088;2024-01-15T05:14:33;4.50;99.90
32217;DHT22;67098;51.140;4.088;2024-01-15T05:16:58;4.50;99.90
32217;DHT22;67098;51.140;4.088;2024-01-15T05:19:24;4.40;99.90
32217;DHT22;67098;51.140;4.088;2024-01-15T05:21:50;4.40;99.90
32217;DHT22;67098;51.140;4.088;2024-01-15T05:24:15;4.40;99.90
32217;DHT22;67098;51.140;4.088;2024-01-15T05:26:41;4.40;99.90
32217;DHT22;67098;51.140;4.088;2024-01-15T05:29:07;4.40;99.90
32217;DHT22;67098;51.140;4.088;2024-01-15T05:31:33;4.50;99.90
32217;DHT22;67098;51.140;4.088;2024-01-15T05:33:58;4.50;99.90
32217;DHT22;67098;51.140;4.088;2024-01-15T05:36:24;4.50;99.90
32217;DHT22;67098;51.140;4.088;2024-01-15T05:38:50;4.50;99.90
32217;DHT22;67098;51.140;4.088;2024-01-15T05:41:16;4.50;99.90
32217;DHT22;67098;51.140;4.088;2024-01-15T05:43:42;4.50;99.90
32217;DHT22;67098;51.140;4.088;2024-01-15T05:46:08;4.60;99.90
32217;DHT22;67098;51.140;4.088;2024-01-15T05:48:33;4.60;99.90
32217;DHT22;67098;51.140;4.088;2024-01-15T05:50:59;4.50;99.90
32217;DHT22;67098;51.140;4.088;2024-01-15T05:53:25;4.50;99.90
32217;DHT22;67098;51.140;4.088;2024-01-15T05:55:51;4.50;99.90
32217;DHT22;67098;51.140;4.088;2024-01-15T05:58:16;4.60;99.90
32217;DHT22;67098;51.140;4.088;2024-01-15T06:00:42;4.50;99.90
32217;DHT22;67098;51.140;4.088;2024-01-15T06:03:08;4.40;99.90
32217;DHT22;67098;51.140;4.088;2024-01-15T06:05:34;4.40;99.90
32217;DHT22;67098;51.140;4.088;2024-01-15T06:07:59;4.40;99.90
32217;DHT22;67098;51.140;4.088;2024-01-15T06:10:25;4.40;99.90
32217;DHT22;67098;51.140;4.088;2024-01-15T06:12:51;4.30;99.90
32217;DHT22;67098;51.140;4.088;2024-01-15T06:15:16;4.40;99.90
32217;DHT22;67098;51.140;4.088;2024-01-15T06:17:42;4.30;99.90
32217;DHT22;67098;51.140;4.088;2024-01-15T06:20:08;4.40;99.90
32217;DHT22;67098;51.140;4.088;2024-01-15T06:22:34;4.40;99.90
32217;DHT22;67098;51.140;4.088;2024-01-15T06:25:02;4.40;99.90
32217;DHT22;67098;51.140;4.088;2024-01-15T06:27:28;4.40;99.90
32217;DHT22;67098;51.140;4.088;2024-01-15T06:29:54;4.40;99.90
32217;DHT22;67098;51.140;4.088;2024-01-15T06:32:21;4.40;99.90
32217;DHT22;67098;51.140;4.088;2024-01-15T06:34:47;4.50;99.90
32217;DHT22;67098;51.140;4.088;2024-01-15T06:37:13;4.40;99.90
32217;DHT22;67098;51.140;4.088;2024-01-15T06:39:38;4.40;99.90
32217;DHT22;67098;51.140;4.088;2024-01-15T06:42:04;4.30;99.90
32217;DHT22;67098;51.140;4.088;2024-01-15T06:44:30;4.40;99.90
32217;DHT22;67098;51.140;4.088;2024-01-15T06:46:56;4.40;99.90
32217;DHT22;67098;51.140;4.088;2024-01-15T06:49:25;4.40;99.90
32217;DHT22;67098;51.140;4.088;2024-01-15T06:51:50;4.40;99.90
32217;DHT22;67098;51.140;4.088;2024-01-15T06:54:16;4.50;99.90
32217;DHT22;67098;51.140;4.088;2024-01-15T06:56:42;4.50;99.90
32217;DHT22;67098;51.140;4.088;2024-01-15T06:59:08;4.60;99.90
32217;DHT22;67098;51.140;4.088;2024-01-15T07:01:33;4.50;99.90
32217;DHT22;67098;51.140;4.088;2024-01-15T07:03:59;4.50;99.90
32217;DHT22;67098;51.140;4.088;2024-01-15T07:06:25;4.50;99.90
32217;DHT22;67098;51.140;4.088;2024-01-15T07:08:50;4.50;99.90
32217;DHT22;67098;51.140;4.088;2024-01-15T07:11:16;4.50;99.90
32217;DHT22;67098;51.140;4.088;2024-01-15T07:13:42;4.50;99.90
32217;DHT22;67098;51.140;4.088;2024-01-15T07:16:08;4.50;99.90
32217;DHT22;67098;51.140;4.088;2024-01-15T07:18:34;4.50;99.90
32217;DHT22;67098;51.140;4.088;2024-01-15T07:20:59;4.30;99.90
32217;DHT22;67098;51.140;4.088;2024-01-15T07:23:27;4.30;99.90
32217;DHT22;67098;51.140;4.088;2024-01-15T07:25:52;4.40;99.90
32217;DHT22;67098;51.140;4.088;2024-01-15T07:28:19;4.40;99.90
32217;DHT22;67098;51.140;4.088;2024-01-15T07:30:45;4.40;99.90
32217;DHT22;67098;51.140;4.088;2024-01-15T07:33:11;4.30;99.90
32217;DHT22;67098;51.140;4.088;2024-01-15T07:35:37;4.30;99.90
32217;DHT22;67098;51.140;4.088;2024-01-15T07:38:03;4.30;99.90
32217;DHT22;67098;51.140;4.088;2024-01-15T07:40:29;4.40;99.90
32217;DHT22;67098;51.140;4.088;2024-01-15T07:42:55;4.50;99.90
32217;DHT22;67098;51.140;4.088;2024-01-15T07:45:21;4.50;99.80
32217;DHT22;67098;51.140;4.088;2024-01-15T07:47:46;4.60;99.30
32217;DHT22;67098;51.140;4.088;2024-01-15T07:50:12;4.60;99.00
32217;DHT22;67098;51.140;4.088;2024-01-15T07:52:40;4.80;98.50
32217;DHT22;67098;51.140;4.088;2024-01-15T07:55:07;4.80;98.50
32217;DHT22;67098;51.140;4.088;2024-01-15T07:57:33;4.80;98.30
32217;DHT22;67098;51.140;4.088;2024-01-15T07:59:59;4.70;98.30
32217;DHT22;67098;51.140;4.088;2024-01-15T08:02:25;4.60;98.50
32217;DHT22;67098;51.140;4.088;2024-01-15T08:04:51;4.70;98.50
32217;DHT22;67098;51.140;4.088;2024-01-15T08:07:16;4.70;98.40
32217;DHT22;67098;51.140;4.088;2024-01-15T08:09:43;4.70;98.20
32217;DHT22;67098;51.140;4.088;2024-01-15T08:12:09;4.50;98.50
32217;DHT22;67098;51.140;4.088;2024-01-15T08:14:35;4.60;98.50
32217;DHT22;67098;51.140;4.088;2024-01-15T08:17:01;4.50;98.80
32217;DHT22;67098;51.140;4.088;2024-01-15T08:19:27;4.60;98.70
32217;DHT22;67098;51.140;4.088;2024-01-15T08:21:53;4.70;98.80
32217;DHT22;67098;51.140;4.088;2024-01-15T08:24:19;4.70;98.90
32217;DHT22;67098;51.140;4.088;2024-01-15T08:26:44;4.70;98.90
32217;DHT22;67098;51.140;4.088;2024-01-15T08:29:10;4.80;98.70
32217;DHT22;67098;51.140;4.088;2024-01-15T08:31:36;4.90;98.40
32217;DHT22;67098;51.140;4.088;2024-01-15T08:34:02;4.90;98.40
32217;DHT22;67098;51.140;4.088;2024-01-15T08:36:28;4.70;98.50
32217;DHT22;67098;51.140;4.088;2024-01-15T08:38:57;4.80;98.30
32217;DHT22;67098;51.140;4.088;2024-01-15T08:41:23;4.80;98.30
32217;DHT22;67098;51.140;4.088;2024-01-15T08:43:49;4.70;98.30
32217;DHT22;67098;51.140;4.088;2024-01-15T08:46:15;4.70;98.40
32217;DHT22;67098;51.140;4.088;2024-01-15T08:48:41;4.70;98.70
32217;DHT22;67098;51.140;4.088;2024-01-15T08:51:07;4.80;98.40
32217;DHT22;67098;51.140;4.088;2024-01-15T08:53:33;4.80;98.20
32217;DHT22;67098;51.140;4.088;2024-01-15T08:55:59;4.90;98.10
32217;DHT22;67098;51.140;4.088;2024-01-15T08:58:25;4.90;98.20
32217;DHT22;67098;51.140;4.088;2024-01-15T09:00:51;5.00;98.20
32217;DHT22;67098;51.140;4.088;2024-01-15T09:03:17;5.10;97.80
32217;DHT22;67098;51.140;4.088;2024-01-15T09:05:43;5.10;97.80
32217;DHT22;67098;51.140;4.088;2024-01-15T09:08:08;5.10;97.90
32217;DHT22;67098;51.140;4.088;2024-01-15T09:10:34;5.20;97.60
32217;DHT22;67098;51.140;4.088;2024-01-15T09:13:00;5.10;97.70
32217;DHT22;67098;51.140;4.088;2024-01-15T09:15:26;5.20;97.60
32217;DHT22;67098;51.140;4.088;2024-01-15T09:17:52;5.00;97.70
32217;DHT22;67098;51.140;4.088;2024-01-15T09:20:17;5.00;97.90
32217;DHT22;67098;51.140;4.088;2024-01-15T09:22:44;5.10;97.60
32217;DHT22;67098;51.140;4.088;2024-01-15T09:25:10;5.00;97.80
32217;DHT22;67098;51.140;4.088;2024-01-15T09:27:36;5.00;97.90
32217;DHT22;67098;51.140;4.088;2024-01-15T09:30:03;5.10;97.40
32217;DHT22;67098;51.140;4.088;2024-01-15T09:32:29;5.10;97.50
32217;DHT22;67098;51.140;4.088;2024-01-15T09:34:55;5.10;97.70
32217;DHT22;67098;51.140;4.088;2024-01-15T09:37:21;5.10;97.90
32217;DHT22;67098;51.140;4.088;2024-01-15T09:39:47;5.00;98.00
32217;DHT22;67098;51.140;4.088;2024-01-15T09:42:14;5.20;97.50
32217;DHT22;67098;51.140;4.088;2024-01-15T09:44:40;5.20;97.30
32217;DHT22;67098;51.140;4.088;2024-01-15T09:47:06;5.00;97.70
32217;DHT22;67098;51.140;4.088;2024-01-15T09:49:33;5.00;97.90
32217;DHT22;67098;51.140;4.088;2024-01-15T09:51:59;5.10;97.70
32217;DHT22;67098;51.140;4.088;2024-01-15T09:54:26;5.30;97.40
32217;DHT22;67098;51.140;4.088;2024-01-15T09:56:52;5.30;97.40
32217;DHT22;67098;51.140;4.088;2024-01-15T09:59:19;5.10;97.60
32217;DHT22;67098;51.140;4.088;2024-01-15T10:01:46;5.10;97.60
32217;DHT22;67098;51.140;4.088;2024-01-15T10:04:13;5.20;97.50
32217;DHT22;67098;51.140;4.088;2024-01-15T10:06:43;5.10;97.70
32217;DHT22;67098;51.140;4.088;2024-01-15T10:09:12;5.20;97.70
32217;DHT22;67098;51.140;4.088;2024-01-15T10:11:41;5.20;97.90
32217;DHT22;67098;51.140;4.088;2024-01-15T10:14:08;5.20;98.00
32217;DHT22;67098;51.140;4.088;2024-01-15T10:16:34;5.50;97.30
32217;DHT22;67098;51.140;4.088;2024-01-15T10:19:00;5.70;97.00
32217;DHT22;67098;51.140;4.088;2024-01-15T10:21:25;5.70;97.00
32217;DHT22;67098;51.140;4.088;2024-01-15T10:23:54;5.70;96.90
32217;DHT22;67098;51.140;4.088;2024-01-15T10:26:25;5.80;96.90
32217;DHT22;67098;51.140;4.088;2024-01-15T10:28:51;5.80;97.00
32217;DHT22;67098;51.140;4.088;2024-01-15T10:31:20;5.90;97.10
32217;DHT22;67098;51.140;4.088;2024-01-15T10:33:48;6.10;97.00
32217;DHT22;67098;51.140;4.088;2024-01-15T10:36:15;6.10;96.40
32217;DHT22;67098;51.140;4.088;2024-01-15T10:38:45;6.20;96.00
32217;DHT22;67098;51.140;4.088;2024-01-15T10:41:11;6.30;95.90
32217;DHT22;67098;51.140;4.088;2024-01-15T10:43:37;6.30;95.70
32217;DHT22;67098;51.140;4.088;2024-01-15T10:46:03;6.20;95.60
32217;DHT22;67098;51.140;4.088;2024-01-15T10:48:30;6.20;95.40
32217;DHT22;67098;51.140;4.088;2024-01-15T10:50:59;6.10;95.60
32217;DHT22;67098;51.140;4.088;2024-01-15T10:53:25;6.10;95.50
32217;DHT22;67098;51.140;4.088;2024-01-15T10:55:51;6.20;95.60
32217;DHT22;67098;51.140;4.088;2024-01-15T10:58:17;6.10;95.50
32217;DHT22;67098;51.140;4.088;2024-01-15T11:00:44;6.10;95.80
32217;DHT22;67098;51.140;4.088;2024-01-15T11:03:10;6.30;95.80
32217;DHT22;67098;51.140;4.088;2024-01-15T11:05:42;6.30;96.00
32217;DHT22;67098;51.140;4.088;2024-01-15T11:08:08;6.50;95.10
32217;DHT22;67098;51.140;4.088;2024-01-15T11:10:46;6.50;95.00
32217;DHT22;67098;51.140;4.088;2024-01-15T11:16:03;6.30;95.20
32217;DHT22;67098;51.140;4.088;2024-01-15T11:18:33;6.20;95.00
32217;DHT22;67098;51.140;4.088;2024-01-15T11:23:44;5.90;95.50
32217;DHT22;67098;51.140;4.088;2024-01-15T11:29:01;6.10;95.80
32217;DHT22;67098;51.140;4.088;2024-01-15T11:34:07;6.20;95.70
32217;DHT22;67098;51.140;4.088;2024-01-15T11:41:54;6.20;95.90
32217;DHT22;67098;51.140;4.088;2024-01-15T11:44:21;6.10;96.20
32217;DHT22;67098;51.140;4.088;2024-01-15T11:46:59;6.10;96.60
32217;DHT22;67098;51.140;4.088;2024-01-15T11:52:20;6.30;96.10
32217;DHT22;67098;51.140;4.088;2024-01-15T11:57:29;6.10;96.40
32217;DHT22;67098;51.140;4.088;2024-01-15T11:59:57;6.10;96.20
32217;DHT22;67098;51.140;4.088;2024-01-15T12:02:23;6.20;96.40
32217;DHT22;67098;51.140;4.088;2024-01-15T12:04:49;6.30;96.40
32217;DHT22;67098;51.140;4.088;2024-01-15T12:07:15;6.30;96.70
32217;DHT22;67098;51.140;4.088;2024-01-15T12:09:44;6.30;97.10
32217;DHT22;67098;51.140;4.088;2024-01-15T12:12:14;6.30;97.30
32217;DHT22;67098;51.140;4.088;2024-01-15T12:14:42;6.40;97.40
32217;DHT22;67098;51.140;4.088;2024-01-15T12:17:08;6.40;97.60
32217;DHT22;67098;51.140;4.088;2024-01-15T12:19:34;6.10;98.40
32217;DHT22;67098;51.140;4.088;2024-01-15T12:22:00;6.10;98.30
32217;DHT22;67098;51.140;4.088;2024-01-15T12:24:26;6.00;98.00
32217;DHT22;67098;51.140;4.088;2024-01-15T12:26:52;5.90;98.50
32217;DHT22;67098;51.140;4.088;2024-01-15T12:29:18;6.00;98.70
32217;DHT22;67098;51.140;4.088;2024-01-15T12:31:48;6.10;99.00
32217;DHT22;67098;51.140;4.088;2024-01-15T12:34:13;6.20;98.80
32217;DHT22;67098;51.140;4.088;2024-01-15T12:36:40;6.50;98.10
32217;DHT22;67098;51.140;4.088;2024-01-15T12:39:11;6.30;97.70
32217;DHT22;67098;51.140;4.088;2024-01-15T12:41:38;6.10;98.20
32217;DHT22;67098;51.140;4.088;2024-01-15T12:44:04;6.00;98.60
32217;DHT22;67098;51.140;4.088;2024-01-15T12:46:30;5.80;99.00
32217;DHT22;67098;51.140;4.088;2024-01-15T12:48:57;5.40;99.70
32217;DHT22;67098;51.140;4.088;2024-01-15T12:51:26;5.40;99.90
32217;DHT22;67098;51.140;4.088;2024-01-15T12:53:52;5.60;99.90
32217;DHT22;67098;51.140;4.088;2024-01-15T12:56:18;5.80;99.90
32217;DHT22;67098;51.140;4.088;2024-01-15T12:58:44;5.80;99.90
32217;DHT22;67098;51.140;4.088;2024-01-15T13:01:10;5.90;99.60
32217;DHT22;67098;51.140;4.088;2024-01-15T13:03:36;5.90;99.60
32217;DHT22;67098;51.140;4.088;2024-01-15T13:06:02;6.00;99.60
32217;DHT22;67098;51.140;4.088;2024-01-15T13:08:28;6.10;99.70
32217;DHT22;67098;51.140;4.088;2024-01-15T13:10:55;6.50;99.10
32217;DHT22;67098;51.140;4.088;2024-01-15T13:13:23;6.40;99.10
32217;DHT22;67098;51.140;4.088;2024-01-15T13:15:49;5.80;99.70
32217;DHT22;67098;51.140;4.088;2024-01-15T13:18:15;5.30;99.90
32217;DHT22;67098;51.140;4.088;2024-01-15T13:20:41;4.90;99.90
32217;DHT22;67098;51.140;4.088;2024-01-15T13:23:07;4.70;99.90
32217;DHT22;67098;51.140;4.088;2024-01-15T13:25:33;4.60;99.90
32217;DHT22;67098;51.140;4.088;2024-01-15T13:28:01;4.60;99.90
32217;DHT22;67098;51.140;4.088;2024-01-15T13:30:28;4.50;99.90
32217;DHT22;67098;51.140;4.088;2024-01-15T13:32:53;4.50;99.90
32217;DHT22;67098;51.140;4.088;2024-01-15T13:35:21;4.40;99.90
32217;DHT22;67098;51.140;4.088;2024-01-15T13:37:47;4.40;99.90
32217;DHT22;67098;51.140;4.088;2024-01-15T13:40:13;4.50;99.90
32217;DHT22;67098;51.140;4.088;2024-01-15T13:42:42;4.90;99.90
32217;DHT22;67098;51.140;4.088;2024-01-15T13:45:08;5.20;99.90
32217;DHT22;67098;51.140;4.088;2024-01-15T13:47:34;5.30;99.90
32217;DHT22;67098;51.140;4.088;2024-01-15T13:50:00;5.30;99.90
32217;DHT22;67098;51.140;4.088;2024-01-15T13:52:26;5.20;99.90
32217;DHT22;67098;51.140;4.088;2024-01-15T13:54:53;4.90;99.90
32217;DHT22;67098;51.140;4.088;2024-01-15T13:57:19;4.60;99.90
32217;DHT22;67098;51.140;4.088;2024-01-15T13:59:45;4.40;99.90
32217;DHT22;67098;51.140;4.088;2024-01-15T14:02:11;4.40;99.90
32217;DHT22;67098;51.140;4.088;2024-01-15T14:04:38;4.20;99.90
32217;DHT22;67098;51.140;4.088;2024-01-15T14:07:04;4.10;99.90
32217;DHT22;67098;51.140;4.088;2024-01-15T14:09:30;4.20;99.90
32217;DHT22;67098;51.140;4.088;2024-01-15T14:11:57;4.30;99.90
32217;DHT22;67098;51.140;4.088;2024-01-15T14:14:23;4.40;99.90
32217;DHT22;67098;51.140;4.088;2024-01-15T14:16:49;4.20;99.90
32217;DHT22;67098;51.140;4.088;2024-01-15T14:19:15;4.20;99.90
32217;DHT22;67098;51.140;4.088;2024-01-15T14:21:41;4.30;99.90
32217;DHT22;67098;51.140;4.088;2024-01-15T14:24:07;4.40;99.90
32217;DHT22;67098;51.140;4.088;2024-01-15T14:26:32;4.60;99.90
32217;DHT22;67098;51.140;4.088;2024-01-15T14:28:58;4.50;99.90
32217;DHT22;67098;51.140;4.088;2024-01-15T14:31:24;4.30;99.90
32217;DHT22;67098;51.140;4.088;2024-01-15T14:33:52;4.30;99.90
32217;DHT22;67098;51.140;4.088;2024-01-15T14:36:18;4.30;99.90
32217;DHT22;67098;51.140;4.088;2024-01-15T14:38:44;4.20;99.90
32217;DHT22;67098;51.140;4.088;2024-01-15T14:41:09;4.20;99.90
32217;DHT22;67098;51.140;4.088;2024-01-15T14:43:35;4.20;99.90
32217;DHT22;67098;51.140;4.088;2024-01-15T14:46:01;4.00;99.90
32217;DHT22;67098;51.140;4.088;2024-01-15T14:48:26;4.10;99.90
32217;DHT22;67098;51.140;4.088;2024-01-15T14:50:52;4.10;99.90
32217;DHT22;67098;51.140;4.088;2024-01-15T14:53:18;4.20;99.90
32217;DHT22;67098;51.140;4.088;2024-01-15T14:55:44;4.10;99.90
32217;DHT22;67098;51.140;4.088;2024-01-15T14:58:09;4.20;99.90
32217;DHT22;67098;51.140;4.088;2024-01-15T15:00:35;4.20;99.90
32217;DHT22;67098;51.140;4.088;2024-01-15T15:03:01;4.20;99.90
32217;DHT22;67098;51.140;4.088;2024-01-15T15:05:27;4.00;99.90
32217;DHT22;67098;51.140;4.088;2024-01-15T15:07:53;4.00;99.90
32217;DHT22;67098;51.140;4.088;2024-01-15T15:10:19;4.00;99.90
32217;DHT22;67098;51.140;4.088;2024-01-15T15:12:45;4.00;99.90
32217;DHT22;67098;51.140;4.088;2024-01-15T15:15:10;4.00;99.90
32217;DHT22;67098;51.140;4.088;2024-01-15T15:17:37;4.00;99.90
32217;DHT22;67098;51.140;4.088;2024-01-15T15:20:05;4.10;99.90
32217;DHT22;67098;51.140;4.088;2024-01-15T15:22:31;4.10;99.90
32217;DHT22;67098;51.140;4.088;2024-01-15T15:24:56;4.20;99.90
32217;DHT22;67098;51.140;4.088;2024-01-15T15:27:22;4.40;99.90
32217;DHT22;67098;51.140;4.088;2024-01-15T15:29:48;4.50;99.90
32217;DHT22;67098;51.140;4.088;2024-01-15T15:32:16;4.60;99.90
32217;DHT22;67098;51.140;4.088;2024-01-15T15:34:41;4.60;99.90
32217;DHT22;67098;51.140;4.088;2024-01-15T15:37:07;4.60;99.90
32217;DHT22;67098;51.140;4.088;2024-01-15T15:39:33;4.60;99.90
32217;DHT22;67098;51.140;4.088;2024-01-15T15:41:59;4.30;99.90
32217;DHT22;67098;51.140;4.088;2024-01-15T15:44:26;4.30;99.90
32217;DHT22;67098;51.140;4.088;2024-01-15T15:46:52;4.40;99.90
32217;DHT22;67098;51.140;4.088;2024-01-15T15:49:17;4.80;99.90
32217;DHT22;67098;51.140;4.088;2024-01-15T15:51:43;4.90;99.90
32217;DHT22;67098;51.140;4.088;2024-01-15T15:54:09;4.80;99.90
32217;DHT22;67098;51.140;4.088;2024-01-15T15:56:35;4.90;99.90
32217;DHT22;67098;51.140;4.088;2024-01-15T15:59:07;4.90;99.90